createdAt,value
2022-08-28T00:00:41.839Z,79.80
2022-08-28T00:03:11.188Z,82.40
2022-08-28T00:05:39.785Z,85.00
2022-08-28T00:08:08.651Z,84.00
2022-08-28T00:10:36.693Z,84.20
2022-08-28T00:13:03.589Z,85.60
2022-08-28T00:15:33.899Z,88.90
2022-08-28T00:18:01.556Z,95.80
2022-08-28T00:20:29.463Z,99.90
2022-08-28T00:22:56.859Z,99.90
2022-08-28T00:25:26.154Z,99.90
2022-08-28T00:27:55.451Z,99.90
2022-08-28T00:30:31.636Z,99.90
2022-08-28T00:33:02.452Z,99.90
2022-08-28T00:35:29.719Z,99.90
2022-08-28T00:37:57.551Z,99.90
2022-08-28T00:40:28.783Z,99.90
2022-08-28T00:43:00.500Z,99.90
2022-08-28T00:45:27.665Z,99.90
2022-08-28T00:47:54.562Z,99.90
2022-08-28T00:50:24.755Z,99.90
2022-08-28T00:52:57.455Z,99.90
2022-08-28T00:55:26.796Z,99.90
2022-08-28T00:57:58.310Z,99.90
2022-08-28T01:00:33.976Z,99.90
2022-08-28T01:03:01.485Z,99.90
2022-08-28T01:05:29.369Z,99.90
2022-08-28T01:07:58.935Z,99.90
2022-08-28T01:10:29.094Z,99.90
2022-08-28T01:12:57.318Z,99.90
2022-08-28T01:15:31.220Z,99.90
2022-08-28T01:18:05.919Z,99.90
2022-08-28T01:20:38.253Z,99.90
2022-08-28T01:23:32.568Z,99.90
2022-08-28T01:26:00.331Z,99.90
2022-08-28T01:28:28.295Z,99.90
2022-08-28T01:30:55.292Z,99.90
2022-08-28T01:33:27.883Z,99.90
2022-08-28T01:35:55.156Z,99.90
2022-08-28T01:38:26.879Z,99.90
2022-08-28T01:40:57.852Z,99.90
2022-08-28T01:43:26.684Z,99.90
2022-08-28T01:46:01.924Z,99.90
2022-08-28T01:48:30.212Z,99.90
2022-08-28T01:50:57.338Z,99.90
2022-08-28T01:53:32.683Z,99.90
2022-08-28T01:56:02.300Z,99.90
2022-08-28T01:58:36.054Z,99.90
2022-08-28T02:01:09.677Z,99.90
2022-08-28T02:03:36.837Z,99.90
2022-08-28T02:06:03.964Z,99.90
2022-08-28T02:08:30.731Z,99.90
2022-08-28T02:10:57.811Z,99.90
2022-08-28T02:13:25.704Z,99.90
2022-08-28T02:15:52.769Z,99.90
2022-08-28T02:18:20.050Z,99.90
2022-08-28T02:20:46.898Z,99.90
2022-08-28T02:23:14.193Z,99.90
2022-08-28T02:25:41.061Z,99.90
2022-08-28T02:28:09.069Z,99.90
2022-08-28T02:30:36.860Z,99.90
2022-08-28T02:33:04.053Z,99.90
2022-08-28T02:35:31.333Z,99.90
2022-08-28T02:37:58.467Z,99.90
2022-08-28T02:40:28.135Z,99.90
2022-08-28T02:42:55.010Z,99.90
2022-08-28T02:45:21.873Z,99.90
2022-08-28T02:47:51.407Z,99.90
2022-08-28T02:50:19.891Z,99.90
2022-08-28T02:52:47.188Z,99.90
2022-08-28T02:55:17.831Z,99.90
2022-08-28T02:57:46.077Z,99.90
2022-08-28T03:00:19.932Z,99.90
2022-08-28T03:02:47.899Z,99.90
2022-08-28T03:05:18.999Z,99.90
2022-08-28T03:07:45.803Z,99.90
2022-08-28T03:10:12.931Z,99.90
2022-08-28T03:12:39.777Z,99.90
2022-08-28T03:15:07.800Z,99.90
2022-08-28T03:17:37.024Z,99.90
2022-08-28T03:20:08.679Z,99.90
2022-08-28T03:22:54.588Z,99.90
2022-08-28T03:25:22.739Z,99.90
2022-08-28T03:27:50.417Z,99.90
2022-08-28T03:30:17.564Z,99.90
2022-08-28T03:32:44.391Z,99.90
2022-08-28T03:35:12.154Z,99.90
2022-08-28T03:37:39.294Z,99.90
2022-08-28T03:40:07.836Z,99.90
2022-08-28T03:42:35.237Z,99.90
2022-08-28T03:45:02.273Z,99.90
2022-08-28T03:47:29.649Z,99.90
2022-08-28T03:49:57.394Z,99.90
2022-08-28T03:52:24.682Z,99.90
2022-08-28T03:54:52.540Z,99.90
2022-08-28T03:57:21.435Z,99.90
2022-08-28T03:59:50.546Z,99.90
2022-08-28T04:02:20.635Z,99.90
2022-08-28T04:04:50.773Z,99.90
2022-08-28T04:07:19.973Z,99.90
2022-08-28T04:09:47.273Z,99.90
2022-08-28T04:12:15.236Z,99.90
2022-08-28T04:14:42.385Z,99.90
2022-08-28T04:17:09.986Z,99.90
2022-08-28T04:19:36.851Z,99.90
2022-08-28T04:22:03.776Z,99.90
2022-08-28T04:24:31.245Z,99.90
2022-08-28T04:26:58.089Z,99.90
2022-08-28T04:29:24.979Z,99.90
2022-08-28T04:31:51.880Z,99.90
2022-08-28T04:34:18.853Z,99.90
2022-08-28T04:36:46.810Z,99.90
2022-08-28T04:39:13.705Z,99.90
2022-08-28T04:41:40.937Z,99.90
2022-08-28T04:44:08.218Z,99.90
2022-08-28T04:46:35.629Z,99.90
2022-08-28T04:49:04.406Z,99.90
2022-08-28T04:51:31.635Z,99.90
2022-08-28T04:53:58.989Z,99.90
2022-08-28T04:56:26.635Z,99.90
2022-08-28T04:58:53.468Z,99.90
2022-08-28T05:01:24.415Z,99.90
2022-08-28T05:03:55.366Z,99.90
2022-08-28T05:06:22.910Z,99.90
2022-08-28T05:08:49.773Z,99.90
2022-08-28T05:11:24.571Z,99.90
2022-08-28T05:14:06.367Z,99.90
2022-08-28T05:16:39.607Z,99.90
2022-08-28T05:19:06.529Z,99.90
2022-08-28T05:21:33.340Z,99.90
2022-08-28T05:24:00.168Z,99.90
2022-08-28T05:26:29.627Z,99.90
2022-08-28T05:28:58.906Z,99.90
2022-08-28T05:31:27.488Z,99.90
2022-08-28T05:33:54.847Z,99.90
2022-08-28T05:36:25.369Z,99.90
2022-08-28T05:38:58.570Z,99.90
2022-08-28T05:41:30.244Z,99.90
2022-08-28T05:44:02.719Z,99.90
2022-08-28T05:46:30.157Z,99.90
2022-08-28T05:48:57.729Z,99.90
2022-08-28T05:51:26.705Z,99.90
2022-08-28T05:53:55.955Z,99.90
2022-08-28T05:56:29.884Z,99.90
2022-08-28T05:58:58.025Z,99.90
2022-08-28T06:01:30.752Z,99.90
2022-08-28T06:04:01.293Z,99.90
2022-08-28T06:06:30.388Z,99.90
2022-08-28T06:08:59.453Z,99.90
2022-08-28T06:11:30.432Z,99.90
2022-08-28T06:14:03.013Z,99.90
2022-08-28T06:16:31.881Z,99.90
2022-08-28T06:18:59.297Z,99.90
2022-08-28T06:21:26.349Z,99.90
2022-08-28T06:23:53.316Z,99.90
2022-08-28T06:26:20.215Z,99.90
2022-08-28T06:28:47.027Z,99.90
2022-08-28T06:31:25.047Z,99.90
2022-08-28T06:33:56.109Z,99.90
2022-08-28T06:36:23.626Z,99.90
2022-08-28T06:38:50.881Z,99.90
2022-08-28T06:41:18.419Z,99.90
2022-08-28T06:43:45.294Z,99.90
2022-08-28T06:46:12.199Z,99.90
2022-08-28T06:48:39.169Z,99.90
2022-08-28T06:51:09.499Z,99.90
2022-08-28T06:53:37.697Z,99.90
2022-08-28T06:56:08.465Z,99.90
2022-08-28T06:58:37.828Z,99.90
2022-08-28T07:01:10.991Z,99.90
2022-08-28T07:03:44.418Z,99.90
2022-08-28T07:06:14.308Z,99.90
2022-08-28T07:08:42.908Z,94.10
2022-08-28T07:11:19.135Z,95.10
2022-08-28T07:13:46.820Z,91.60
2022-08-28T07:16:17.444Z,91.30
2022-08-28T07:18:45.801Z,88.20
2022-08-28T07:21:13.715Z,88.90
2022-08-28T07:23:42.417Z,90.20
2022-08-28T07:26:12.948Z,86.90
2022-08-28T07:28:40.147Z,87.30
2022-08-28T07:31:15.529Z,86.40
2022-08-28T07:33:43.689Z,84.50
2022-08-28T07:36:16.002Z,84.60
2022-08-28T07:38:58.154Z,79.60
2022-08-28T07:41:28.204Z,80.80
2022-08-28T07:44:13.996Z,80.00
2022-08-28T07:46:41.665Z,80.20
2022-08-28T07:49:09.061Z,83.20
2022-08-28T07:51:36.021Z,78.50
2022-08-28T07:54:04.111Z,77.70
2022-08-28T07:56:31.734Z,76.10
2022-08-28T07:59:00.099Z,78.20
2022-08-28T08:01:28.901Z,76.50
2022-08-28T08:04:01.592Z,75.60
2022-08-28T08:06:33.072Z,74.60
2022-08-28T08:09:02.039Z,74.80
2022-08-28T08:11:32.175Z,75.70
2022-08-28T08:14:05.510Z,72.70
2022-08-28T08:16:40.155Z,74.20
2022-08-28T08:19:14.009Z,73.80
2022-08-28T08:21:41.530Z,73.50
2022-08-28T08:24:08.508Z,76.20
2022-08-28T08:26:36.481Z,75.70
2022-08-28T08:29:03.374Z,73.10
2022-08-28T08:31:32.801Z,73.30
2022-08-28T08:34:02.775Z,72.00
2022-08-28T08:36:32.607Z,73.40
2022-08-28T08:39:00.609Z,73.20
2022-08-28T08:41:51.881Z,72.70
2022-08-28T08:44:42.738Z,71.60
2022-08-28T08:47:30.467Z,70.30
2022-08-28T08:50:01.588Z,69.50
2022-08-28T08:52:42.969Z,69.10
2022-08-28T08:55:22.300Z,67.90
2022-08-28T08:57:55.930Z,66.70
2022-08-28T09:00:22.986Z,69.30
2022-08-28T09:03:48.483Z,67.60
2022-08-28T09:06:29.614Z,68.10
2022-08-28T09:09:14.660Z,68.70
2022-08-28T09:11:44.180Z,68.40
2022-08-28T09:14:46.478Z,66.70
2022-08-28T09:17:18.330Z,63.90
2022-08-28T09:19:45.432Z,64.00
2022-08-28T09:22:12.385Z,62.60
2022-08-28T09:24:41.453Z,62.20
2022-08-28T09:27:29.504Z,60.30
2022-08-28T09:30:07.685Z,60.70
2022-08-28T09:32:41.693Z,60.40
2022-08-28T09:35:37.362Z,59.90
2022-08-28T09:38:27.825Z,56.30
2022-08-28T09:41:29.590Z,56.40
2022-08-28T09:43:57.322Z,56.60
2022-08-28T09:46:30.874Z,56.10
2022-08-28T09:49:13.399Z,55.70
2022-08-28T09:51:41.181Z,52.50
2022-08-28T09:54:21.428Z,54.30
2022-08-28T09:56:49.991Z,52.50
2022-08-28T09:59:19.213Z,51.20
2022-08-28T10:02:33.617Z,49.00
2022-08-28T10:05:37.540Z,44.40
2022-08-28T10:08:21.093Z,47.30
2022-08-28T10:11:04.287Z,48.20
2022-08-28T10:13:36.905Z,50.60
2022-08-28T10:16:13.996Z,48.50
2022-08-28T10:18:55.836Z,46.70
2022-08-28T10:21:43.135Z,50.90
2022-08-28T10:25:02.887Z,50.50
2022-08-28T10:27:48.540Z,49.20
2022-08-28T10:30:21.682Z,45.10
2022-08-28T10:32:56.286Z,45.10
2022-08-28T10:35:55.873Z,42.40
2022-08-28T10:38:26.649Z,40.90
2022-08-28T10:41:01.774Z,40.20
2022-08-28T10:43:44.282Z,39.40
2022-08-28T10:46:18.215Z,36.10
2022-08-28T10:49:01.915Z,38.50
2022-08-28T10:51:35.384Z,34.80
2022-08-28T10:54:12.060Z,35.70
2022-08-28T10:56:56.660Z,35.40
2022-08-28T10:59:26.358Z,34.80
2022-08-28T11:01:53.611Z,37.90
2022-08-28T11:04:25.721Z,37.70
2022-08-28T11:07:05.874Z,35.30
2022-08-28T11:09:38.911Z,36.00
2022-08-28T11:12:16.677Z,35.90
2022-08-28T11:14:48.483Z,35.30
2022-08-28T11:17:25.444Z,32.80
2022-08-28T11:20:28.797Z,31.10
2022-08-28T11:23:15.108Z,36.50
2022-08-28T11:25:51.312Z,33.80
2022-08-28T11:28:24.288Z,32.60
2022-08-28T11:31:06.441Z,31.00
2022-08-28T11:33:47.826Z,31.30
2022-08-28T11:36:20.518Z,28.00
2022-08-28T11:38:53.415Z,27.60
2022-08-28T11:41:39.066Z,30.90
2022-08-28T11:44:12.491Z,28.70
2022-08-28T11:46:49.153Z,26.40
2022-08-28T11:49:34.052Z,26.00
2022-08-28T11:52:29.313Z,27.90
2022-08-28T11:55:44.104Z,27.10
2022-08-28T11:58:16.988Z,25.00
2022-08-28T12:00:55.844Z,27.50
2022-08-28T12:03:38.130Z,24.90
2022-08-28T12:06:06.606Z,23.70
2022-08-28T12:08:56.726Z,22.90
2022-08-28T12:11:42.061Z,21.40
2022-08-28T12:14:13.337Z,20.50
2022-08-28T12:16:58.784Z,21.20
2022-08-28T12:19:51.245Z,22.40
2022-08-28T12:22:26.567Z,22.50
2022-08-28T12:25:06.500Z,20.90
2022-08-28T12:27:38.757Z,15.10
2022-08-28T12:30:06.045Z,16.80
2022-08-28T12:32:43.808Z,16.80
2022-08-28T12:35:22.799Z,18.60
2022-08-28T12:37:58.368Z,17.00
2022-08-28T12:40:28.639Z,14.80
2022-08-28T12:43:05.374Z,15.30
2022-08-28T12:45:50.592Z,19.50
2022-08-28T12:48:22.766Z,16.80
2022-08-28T12:51:17.047Z,16.40
2022-08-28T12:53:50.799Z,15.90
2022-08-28T12:56:20.776Z,15.10
2022-08-28T12:58:48.486Z,16.90
2022-08-28T13:01:21.528Z,18.10
2022-08-28T13:03:52.030Z,18.20
2022-08-28T13:06:29.590Z,15.30
2022-08-28T13:09:18.646Z,16.10
2022-08-28T13:11:49.200Z,15.40
2022-08-28T13:14:45.798Z,15.70
2022-08-28T13:17:15.232Z,13.30
2022-08-28T13:19:44.174Z,12.60
2022-08-28T13:22:50.664Z,13.80
2022-08-28T13:25:24.024Z,12.60
2022-08-28T13:28:01.138Z,11.10
2022-08-28T13:30:33.744Z,15.10
2022-08-28T13:33:19.351Z,13.70
2022-08-28T13:35:46.838Z,10.50
2022-08-28T13:38:16.850Z,13.10
2022-08-28T13:41:00.133Z,13.00
2022-08-28T13:43:30.435Z,10.90
2022-08-28T13:45:58.034Z,12.00
2022-08-28T13:48:26.944Z,9.40
2022-08-28T13:51:03.506Z,10.70
2022-08-28T13:53:32.430Z,11.30
2022-08-28T13:56:00.524Z,11.40
2022-08-28T13:58:28.375Z,10.70
2022-08-28T14:00:55.472Z,8.90
2022-08-28T14:03:38.904Z,9.90
2022-08-28T14:06:12.391Z,10.70
2022-08-28T14:08:40.061Z,9.50
2022-08-28T14:11:07.564Z,11.10
2022-08-28T14:13:34.734Z,10.90
2022-08-28T14:16:05.866Z,12.00
2022-08-28T14:18:33.360Z,11.40
2022-08-28T14:21:00.540Z,12.90
2022-08-28T14:23:27.409Z,11.40
2022-08-28T14:25:54.468Z,9.70
2022-08-28T14:28:21.368Z,10.40
2022-08-28T14:30:50.933Z,11.00
2022-08-28T14:33:20.692Z,9.70
2022-08-28T14:35:49.182Z,10.10
2022-08-28T14:38:16.816Z,9.90
2022-08-28T14:40:44.639Z,7.20
2022-08-28T14:43:13.119Z,10.40
2022-08-28T14:45:49.594Z,12.40
2022-08-28T14:48:18.885Z,9.90
2022-08-28T14:50:47.700Z,9.30
2022-08-28T14:53:15.832Z,9.80
2022-08-28T14:55:48.747Z,9.50
2022-08-28T14:58:17.862Z,8.00
2022-08-28T15:00:48.986Z,9.30
2022-08-28T15:03:17.235Z,8.30
2022-08-28T15:05:45.098Z,11.40
2022-08-28T15:08:14.909Z,9.60
2022-08-28T15:10:43.415Z,10.10
2022-08-28T15:13:10.634Z,9.20
2022-08-28T15:15:42.607Z,9.70
2022-08-28T15:18:11.126Z,8.70
2022-08-28T15:20:43.814Z,9.90
2022-08-28T15:23:12.334Z,8.50
2022-08-28T15:25:39.392Z,12.20
2022-08-28T15:28:06.892Z,10.10
2022-08-28T15:30:33.937Z,11.00
2022-08-28T15:33:01.053Z,9.20
2022-08-28T15:35:28.231Z,11.20
2022-08-28T15:37:55.409Z,11.30
2022-08-28T15:40:42.479Z,10.60
2022-08-28T15:43:09.406Z,11.20
2022-08-28T15:45:38.467Z,12.00
2022-08-28T15:48:05.588Z,12.90
2022-08-28T15:50:32.557Z,12.70
2022-08-28T15:52:59.403Z,12.60
2022-08-28T15:55:26.414Z,12.70
2022-08-28T15:57:54.442Z,12.60
2022-08-28T16:00:21.971Z,15.70
2022-08-28T16:02:49.024Z,15.20
2022-08-28T16:05:15.997Z,14.80
2022-08-28T16:07:43.090Z,15.50
2022-08-28T16:10:13.378Z,17.10
2022-08-28T16:12:41.016Z,18.10
2022-08-28T16:15:08.586Z,18.50
2022-08-28T16:17:35.395Z,18.80
2022-08-28T16:20:05.241Z,19.30
2022-08-28T16:22:38.431Z,20.30
2022-08-28T16:25:06.828Z,21.90
2022-08-28T16:27:33.979Z,21.40
2022-08-28T16:30:01.089Z,22.80
2022-08-28T16:32:27.914Z,23.30
2022-08-28T16:34:54.727Z,23.70
2022-08-28T16:37:21.628Z,23.00
2022-08-28T16:39:54.216Z,24.10
2022-08-28T16:42:21.143Z,24.50
2022-08-28T16:44:48.121Z,24.70
2022-08-28T16:47:15.121Z,25.20
2022-08-28T16:49:41.961Z,26.20
2022-08-28T16:52:08.810Z,26.10
2022-08-28T16:54:35.694Z,26.00
2022-08-28T16:57:02.843Z,26.90
2022-08-28T16:59:29.650Z,26.70
2022-08-28T17:01:56.532Z,26.80
2022-08-28T17:04:24.175Z,27.20
2022-08-28T17:06:51.028Z,27.20
2022-08-28T17:09:20.783Z,26.90
2022-08-28T17:11:51.598Z,27.20
2022-08-28T17:14:20.508Z,27.30
2022-08-28T17:16:47.976Z,28.00
2022-08-28T17:19:15.769Z,27.70
2022-08-28T17:22:01.618Z,27.50
2022-08-28T17:24:28.923Z,28.00
2022-08-28T17:26:55.700Z,28.70
2022-08-28T17:29:22.565Z,28.80
2022-08-28T17:31:49.418Z,29.80
2022-08-28T17:34:16.272Z,30.10
2022-08-28T17:36:48.096Z,30.50
2022-08-28T17:39:16.684Z,30.60
2022-08-28T17:41:43.516Z,31.60
2022-08-28T17:44:10.545Z,31.40
2022-08-28T17:46:38.302Z,31.50
2022-08-28T17:49:07.042Z,31.80
2022-08-28T17:51:42.663Z,32.10
2022-08-28T17:54:16.804Z,32.60
2022-08-28T17:56:46.390Z,32.30
2022-08-28T17:59:13.765Z,33.40
2022-08-28T18:01:41.935Z,33.40
2022-08-28T18:04:09.263Z,34.10
2022-08-28T18:06:36.377Z,34.20
2022-08-28T18:09:04.710Z,34.20
2022-08-28T18:11:31.520Z,34.60
2022-08-28T18:13:59.762Z,35.10
2022-08-28T18:16:31.161Z,34.80
2022-08-28T18:18:59.791Z,35.30
2022-08-28T18:21:26.708Z,36.00
2022-08-28T18:23:53.700Z,35.70
2022-08-28T18:26:20.634Z,36.60
2022-08-28T18:28:47.644Z,36.70
2022-08-28T18:31:14.610Z,36.70
2022-08-28T18:33:41.445Z,36.90
2022-08-28T18:36:10.331Z,37.10
2022-08-28T18:38:37.500Z,38.00
2022-08-28T18:41:05.283Z,37.60
2022-08-28T18:43:32.928Z,38.20
2022-08-28T18:46:00.843Z,38.60
2022-08-28T18:48:28.249Z,38.40
2022-08-28T18:50:55.162Z,38.80
2022-08-28T18:53:23.606Z,38.90
2022-08-28T18:55:52.781Z,39.80
2022-08-28T18:58:21.362Z,39.70
2022-08-28T19:00:48.293Z,40.30
2022-08-28T19:03:15.586Z,40.30
2022-08-28T19:05:42.471Z,41.40
2022-08-28T19:08:09.341Z,41.40
2022-08-28T19:10:38.443Z,41.10
2022-08-28T19:13:06.710Z,41.80
2022-08-28T19:15:34.858Z,42.40
2022-08-28T19:18:03.116Z,42.90
2022-08-28T19:20:30.399Z,43.40
2022-08-28T19:22:58.152Z,44.00
2022-08-28T19:25:29.406Z,44.50
2022-08-28T19:28:03.946Z,44.30
2022-08-28T19:30:33.959Z,44.70
2022-08-28T19:33:03.348Z,44.50
2022-08-28T19:35:30.159Z,44.30
2022-08-28T19:37:57.028Z,45.90
2022-08-28T19:40:23.984Z,45.10
2022-08-28T19:42:51.325Z,45.50
2022-08-28T19:45:18.545Z,46.40
2022-08-28T19:47:46.863Z,46.50
2022-08-28T19:50:15.138Z,46.80
2022-08-28T19:52:43.577Z,46.80
2022-08-28T19:55:17.707Z,46.80
2022-08-28T19:57:46.210Z,46.90
2022-08-28T20:00:15.093Z,48.00
2022-08-28T20:02:41.902Z,47.50
2022-08-28T20:05:09.557Z,48.00
2022-08-28T20:07:36.575Z,48.40
2022-08-28T20:10:04.507Z,47.60
2022-08-28T20:12:31.280Z,48.70
2022-08-28T20:15:01.348Z,49.00
2022-08-28T20:17:30.204Z,48.90
2022-08-28T20:20:02.426Z,50.30
2022-08-28T20:22:32.053Z,50.60
2022-08-28T20:24:59.209Z,51.70
2022-08-28T20:27:26.480Z,53.20
2022-08-28T20:29:53.320Z,53.40
2022-08-28T20:32:20.095Z,52.80
2022-08-28T20:34:46.897Z,53.10
2022-08-28T20:37:13.758Z,53.40
2022-08-28T20:39:41.753Z,54.20
2022-08-28T20:42:10.294Z,53.80
2022-08-28T20:44:37.351Z,54.30
2022-08-28T20:47:04.554Z,53.40
2022-08-28T20:49:31.431Z,53.70
2022-08-28T20:52:00.947Z,54.00
2022-08-28T20:54:35.953Z,54.00
2022-08-28T20:57:06.128Z,54.50
2022-08-28T20:59:39.944Z,53.70
2022-08-28T21:02:13.536Z,54.10
2022-08-28T21:04:42.290Z,54.80
2022-08-28T21:07:10.211Z,55.30
2022-08-28T21:10:04.145Z,55.60
2022-08-28T21:12:24.913Z,56.00
2022-08-28T21:14:52.846Z,56.70
2022-08-28T21:17:28.712Z,58.10
2022-08-28T21:20:00.982Z,58.90
2022-08-28T21:22:29.599Z,58.70
2022-08-28T21:24:56.397Z,59.40
2022-08-28T21:27:23.475Z,59.00
2022-08-28T21:29:50.327Z,59.70
2022-08-28T21:32:17.211Z,60.00
2022-08-28T21:34:44.050Z,59.50
2022-08-28T21:37:10.839Z,60.20
2022-08-28T21:39:37.714Z,59.40
2022-08-28T21:42:04.553Z,60.00
2022-08-28T21:44:31.395Z,59.90
2022-08-28T21:46:59.214Z,60.50
2022-08-28T21:49:26.067Z,60.00
2022-08-28T21:51:53.072Z,60.30
2022-08-28T21:54:19.865Z,60.60
2022-08-28T21:56:46.682Z,60.50
2022-08-28T21:59:17.427Z,60.40
2022-08-28T22:01:44.810Z,61.20
2022-08-28T22:04:11.744Z,61.40
2022-08-28T22:06:40.477Z,63.30
2022-08-28T22:09:08.677Z,63.20
2022-08-28T22:11:35.582Z,66.20
2022-08-28T22:14:02.652Z,69.80
2022-08-28T22:16:29.700Z,72.30
2022-08-28T22:18:56.542Z,71.90
2022-08-28T22:21:44.215Z,71.90
2022-08-28T22:24:13.286Z,71.10
2022-08-28T22:26:41.682Z,71.60
2022-08-28T22:29:09.242Z,71.80
2022-08-28T22:31:41.353Z,71.20
2022-08-28T22:34:13.329Z,71.40
2022-08-28T22:36:40.198Z,71.30
2022-08-28T22:39:07.322Z,71.50
2022-08-28T22:41:34.249Z,70.30
2022-08-28T22:44:01.037Z,71.10
2022-08-28T22:46:28.320Z,70.20
2022-08-28T22:48:55.191Z,70.80
2022-08-28T22:51:22.028Z,70.30
2022-08-28T22:53:49.198Z,70.90
2022-08-28T22:56:17.470Z,70.40
2022-08-28T22:58:44.448Z,69.80
2022-08-28T23:01:17.633Z,70.20
2022-08-28T23:03:45.296Z,70.30
2022-08-28T23:06:12.543Z,70.10
2022-08-28T23:08:39.855Z,71.00
2022-08-28T23:11:07.260Z,71.30
2022-08-28T23:13:34.457Z,70.90
2022-08-28T23:16:01.933Z,73.10
2022-08-28T23:18:29.859Z,79.40
2022-08-28T23:20:57.259Z,80.60
2022-08-28T23:23:24.780Z,80.60
2022-08-28T23:25:51.557Z,80.90
2022-08-28T23:28:19.114Z,81.40
2022-08-28T23:30:49.750Z,82.30
2022-08-28T23:33:23.597Z,86.10
2022-08-28T23:35:51.155Z,92.40
2022-08-28T23:38:18.072Z,91.40
2022-08-28T23:40:44.866Z,91.00
2022-08-28T23:43:12.096Z,91.80
2022-08-28T23:45:40.503Z,91.40
2022-08-28T23:48:07.958Z,91.90
2022-08-28T23:50:35.765Z,91.80
2022-08-28T23:53:04.735Z,95.70
2022-08-28T23:55:33.402Z,99.90
2022-08-28T23:58:00.614Z,99.90
